Time;durP1;ratioP1;P1;durP2;ratioP2;P2;SDS_P1;SDS_P2;PMS_P1;PMS_P2;Temp;Humidity;BMP_temperature;BMP_pressure;BME280_temperature;BME280_humidity;BME280_pressure;Samples;Min_cycle;Max_cycle;Signal;HPM_P1;HPM_P2
2022/05/20 00:01:14;;;;;;;1.60;1.23;;;;;;;20.63;30.83;96100.72;6209018;28;104857;-69
2022/05/20 00:04:17;;;;;;;2.17;1.63;;;;;;;20.59;30.85;96105.00;6208071;28;104859;-57
2022/05/20 00:07:22;;;;;;;1.77;1.67;;;;;;;20.55;31.02;96107.41;6202483;28;105072;-56
2022/05/20 00:10:27;;;;;;;1.60;1.50;;;;;;;20.57;31.00;96107.91;6188465;28;104965;-56
2022/05/20 00:13:30;;;;;;;1.40;1.30;;;;;;;20.55;31.27;96110.06;6208374;28;104741;-56
2022/05/20 00:16:34;;;;;;;2.30;1.70;;;;;;;20.57;31.36;96099.16;6210708;28;104710;-55
2022/05/20 00:19:38;;;;;;;1.90;1.70;;;;;;;20.57;31.34;96102.59;6205016;28;104805;-57
2022/05/20 00:22:43;;;;;;;2.10;1.57;;;;;;;20.52;31.66;96107.16;6201165;28;103799;-56
2022/05/20 00:25:48;;;;;;;1.67;1.50;;;;;;;20.51;31.60;96111.66;6207786;28;103720;-56
2022/05/20 00:28:53;;;;;;;1.43;1.33;;;;;;;20.45;31.71;96111.94;6206768;28;103685;-55
2022/05/20 00:31:56;;;;;;;1.63;1.53;;;;;;;20.48;31.54;96117.50;6189734;28;103863;-56
2022/05/20 00:34:59;;;;;;;1.50;1.40;;;;;;;20.49;31.78;96118.28;6204781;28;103696;-56
2022/05/20 00:38:04;;;;;;;3.33;1.63;;;;;;;20.55;31.49;96120.69;6208471;28;104593;-56
2022/05/20 00:41:09;;;;;;;1.60;1.50;;;;;;;20.57;31.69;96117.75;6194469;28;105270;-56
2022/05/20 00:44:12;;;;;;;1.60;1.50;;;;;;;20.56;31.71;96127.59;6188895;28;104716;-55
2022/05/20 00:47:16;;;;;;;1.60;1.50;;;;;;;20.54;31.94;96128.94;6207095;28;103534;-55
2022/05/20 00:50:19;;;;;;;2.50;1.53;;;;;;;20.49;32.03;96132.38;6201222;28;105068;-56
2022/05/20 00:53:27;;;;;;;3.37;1.60;;;;;;;20.51;32.08;96129.47;6209654;28;104886;-56
2022/05/20 00:56:35;;;;;;;2.73;1.57;;;;;;;20.50;32.01;96134.00;6196463;28;103744;-56
2022/05/20 00:59:43;;;;;;;2.20;1.60;;;;;;;20.50;32.38;96133.19;6201230;28;103914;-56
2022/05/20 01:02:49;;;;;;;2.87;2.00;;;;;;;20.47;32.30;96128.41;6206093;28;103717;-56
2022/05/20 01:05:53;;;;;;;3.70;2.33;;;;;;;20.43;32.58;96122.03;6194028;28;105813;-55
2022/05/20 01:08:58;;;;;;;3.13;1.70;;;;;;;20.41;32.57;96129.47;6185990;28;103954;-56
2022/05/20 01:12:02;;;;;;;2.37;1.77;;;;;;;20.43;32.41;96122.84;6205308;28;103654;-55
2022/05/20 01:15:05;;;;;;;1.70;1.60;;;;;;;20.38;32.52;96125.50;6207626;28;104809;-58
2022/05/20 01:18:09;;;;;;;2.50;2.00;;;;;;;20.28;32.60;96114.88;6196629;28;103745;-56
2022/05/20 01:21:13;;;;;;;1.93;1.70;;;;;;;20.28;32.59;96120.19;6199490;28;104899;-56
2022/05/20 01:24:18;;;;;;;3.00;1.67;;;;;;;20.30;32.60;96112.75;6208676;28;103735;-55
2022/05/20 01:27:21;;;;;;;1.80;1.70;;;;;;;20.26;32.81;96111.69;6199590;28;104400;-56
2022/05/20 01:30:26;;;;;;;2.23;2.00;;;;;;;20.24;32.63;96119.94;6191695;28;103893;-56
2022/05/20 01:33:32;;;;;;;1.73;1.60;;;;;;;20.24;32.70;96116.44;6208745;28;104723;-55
2022/05/20 01:36:35;;;;;;;2.67;1.90;;;;;;;20.20;32.73;96113.53;6207909;28;103592;-54
2022/05/20 01:39:42;;;;;;;4.20;2.33;;;;;;;20.19;32.85;96117.25;6202477;28;103837;-54
2022/05/20 01:42:51;;;;;;;2.17;1.97;;;;;;;20.15;32.61;96108.19;6200485;28;103778;-54
2022/05/20 01:46:00;;;;;;;1.90;1.80;;;;;;;20.15;32.70;96118.03;6210260;28;104413;-54
2022/05/20 01:49:21;;;;;;;2.60;2.00;;;;;;;20.11;33.00;96114.31;6235143;28;104340;-54
2022/05/20 01:52:31;;;;;;;3.67;1.80;;;;;;;20.12;32.62;96108.75;6207372;28;103991;-54
2022/05/20 01:55:41;;;;;;;1.93;1.83;;;;;;;20.10;32.83;96108.22;6201257;28;103732;-54
2022/05/20 01:58:49;;;;;;;2.47;1.97;;;;;;;20.08;32.78;96114.84;6210281;28;103840;-54
2022/05/20 02:01:58;;;;;;;2.30;1.90;;;;;;;20.10;32.78;96121.50;6205938;28;103883;-55
2022/05/20 02:05:08;;;;;;;1.53;1.40;;;;;;;20.05;32.95;96113.53;6204193;28;103808;-54
2022/05/20 02:08:26;;;;;;;2.20;1.70;;;;;;;20.05;33.00;96118.84;6209823;28;103627;-53
2022/05/20 02:11:36;;;;;;;3.17;2.00;;;;;;;20.09;32.78;96111.13;6200185;28;104567;-53
2022/05/20 02:14:46;;;;;;;2.20;2.00;;;;;;;20.07;32.93;96122.03;6174487;28;103334;-53
2022/05/20 02:17:54;;;;;;;2.60;2.40;;;;;;;20.06;33.08;96123.09;6185510;28;103441;-53
2022/05/20 02:21:02;;;;;;;3.87;2.27;;;;;;;20.24;32.97;96119.09;6185140;28;103956;-57
2022/05/20 02:24:09;;;;;;;4.10;2.37;;;;;;;20.67;32.38;96117.75;6184739;28;104112;-57
2022/05/20 02:27:19;;;;;;;2.50;2.03;;;;;;;20.89;31.97;96120.06;6191258;28;103545;-57
2022/05/20 02:30:28;;;;;;;1.70;1.60;;;;;;;20.98;32.23;96115.78;6188773;28;104936;-56
2022/05/20 02:33:32;;;;;;;2.20;1.80;;;;;;;21.08;32.33;96129.06;6208523;28;104753;-57
2022/05/20 02:36:36;;;;;;;8.00;2.77;;;;;;;21.17;32.89;96134.63;6183492;28;105113;-57
2022/05/20 02:39:39;;;;;;;2.63;2.20;;;;;;;21.24;33.03;96129.81;6184329;28;106212;-57
2022/05/20 02:42:43;;;;;;;2.83;2.63;;;;;;;21.29;33.86;96124.47;6184664;28;104998;-58
2022/05/20 02:45:48;;;;;;;5.30;2.63;;;;;;;21.35;34.45;96128.72;6197295;28;104687;-57
2022/05/20 02:48:51;;;;;;;4.40;2.43;;;;;;;21.41;34.45;96127.59;6198669;28;103833;-57
2022/05/20 02:51:54;;;;;;;3.23;2.57;;;;;;;21.44;34.25;96119.06;6203322;28;103872;-57
2022/05/20 02:54:57;;;;;;;3.10;2.43;;;;;;;21.50;34.67;96117.16;6204141;28;103842;-56
2022/05/20 02:58:02;;;;;;;4.60;2.60;;;;;;;21.53;34.80;96116.63;6195629;28;104069;-57
2022/05/20 03:04:30;;;;;;;4.50;3.37;;;;;;;21.56;34.70;96115.28;6199842;28;103966;-57
2022/05/20 03:07:33;;;;;;;3.57;2.70;;;;;;;21.69;34.69;96114.66;6208588;28;104558;-58
2022/05/20 03:10:36;;;;;;;2.93;2.63;;;;;;;21.72;34.75;96111.44;6196868;28;103663;-57
2022/05/20 03:13:41;;;;;;;6.77;2.90;;;;;;;21.81;34.81;96107.09;6204709;28;103852;-57
2022/05/20 03:16:45;;;;;;;4.90;3.10;;;;;;;21.85;34.70;96110.06;6212440;28;104986;-56
2022/05/20 03:19:48;;;;;;;6.37;3.40;;;;;;;21.83;34.71;96110.31;6197001;28;104719;-56
2022/05/20 03:22:51;;;;;;;6.00;3.00;;;;;;;21.78;34.97;96113.00;6191783;28;104224;-57
2022/05/20 03:25:54;;;;;;;5.90;3.03;;;;;;;21.73;34.23;96119.16;6206305;28;104168;-56
2022/05/20 03:28:59;;;;;;;3.07;2.80;;;;;;;21.64;34.12;96117.34;6237462;27;103736;-57
2022/05/20 03:32:02;;;;;;;6.77;2.90;;;;;;;21.74;33.77;96125.28;6203184;28;104368;-57
2022/05/20 03:35:08;;;;;;;6.13;2.70;;;;;;;21.72;33.75;96125.56;6200897;28;103711;-57
2022/05/20 03:38:11;;;;;;;4.63;3.00;;;;;;;21.59;33.63;96123.50;6211719;28;103835;-56
2022/05/20 03:41:14;;;;;;;5.60;2.50;;;;;;;21.61;33.66;96129.34;6212709;28;103637;-57
2022/05/20 03:44:21;;;;;;;10.67;3.30;;;;;;;21.61;33.87;96133.88;6207392;28;103895;-57
2022/05/20 03:47:24;;;;;;;3.70;3.07;;;;;;;21.61;33.63;96144.53;6205620;28;104656;-56
2022/05/20 03:50:27;;;;;;;3.07;2.60;;;;;;;21.60;33.71;96150.94;6209729;28;103080;-56
2022/05/20 03:53:31;;;;;;;4.43;3.43;;;;;;;21.58;33.78;96161.06;6209119;28;104250;-56
2022/05/20 03:56:34;;;;;;;5.00;3.57;;;;;;;21.57;33.71;96157.59;6198805;28;103734;-55
2022/05/20 03:59:39;;;;;;;3.07;2.70;;;;;;;21.58;33.49;96164.53;6210207;28;105074;-57
2022/05/20 04:02:42;;;;;;;3.67;3.33;;;;;;;21.58;33.98;96175.19;6211998;28;103651;-57
2022/05/20 04:05:45;;;;;;;3.40;3.20;;;;;;;21.58;33.86;96174.38;6211712;28;103791;-56
2022/05/20 04:08:48;;;;;;;3.37;3.07;;;;;;;21.58;33.47;96169.84;6202644;28;104939;-60
2022/05/20 04:11:55;;;;;;;4.30;3.27;;;;;;;21.59;33.63;96170.66;6212443;28;104997;-57
2022/05/20 04:15:01;;;;;;;3.23;2.93;;;;;;;21.58;33.81;96171.72;6212450;28;104880;-56
2022/05/20 04:18:05;;;;;;;4.20;3.10;;;;;;;21.57;33.84;96170.13;6207788;28;103643;-57
2022/05/20 04:21:08;;;;;;;5.13;3.27;;;;;;;21.57;33.60;96165.59;6205840;28;103557;-57
2022/05/20 04:24:11;;;;;;;3.83;3.50;;;;;;;21.57;33.67;96170.94;6211621;28;103529;-56
2022/05/20 04:27:15;;;;;;;5.43;2.90;;;;;;;21.56;33.86;96157.88;6211267;28;103766;-57
2022/05/20 04:30:20;;;;;;;4.80;3.13;;;;;;;21.57;33.72;96164.81;6200887;28;103781;-56
2022/05/20 04:33:23;;;;;;;4.17;3.20;;;;;;;21.57;33.60;96164.81;6211271;28;104329;-56
2022/05/20 04:36:26;;;;;;;5.60;3.40;;;;;;;21.58;33.90;96163.72;6211345;28;104233;-56
2022/05/20 04:39:29;;;;;;;3.67;3.20;;;;;;;21.58;33.79;96166.41;6211962;28;104742;-57
2022/05/20 04:49:15;;;;;;;3.60;3.30;;;;;;;21.58;33.65;96169.84;6211165;28;103688;-57
2022/05/20 04:52:20;;;;;;;4.83;3.20;;;;;;;21.59;33.77;96175.97;6205958;28;103826;-57
2022/05/20 04:55:23;;;;;;;4.73;3.30;;;;;;;21.58;34.21;96179.72;6205761;28;104225;-57
2022/05/20 04:58:26;;;;;;;3.13;2.93;;;;;;;21.58;33.88;96185.84;6211247;28;104967;-56
2022/05/20 05:01:30;;;;;;;3.67;3.20;;;;;;;21.60;33.80;96185.56;6211413;28;103920;-57
2022/05/20 05:04:33;;;;;;;3.10;2.90;;;;;;;21.58;33.96;96183.16;6200331;28;103622;-57
2022/05/20 05:07:37;;;;;;;2.80;2.60;;;;;;;21.59;33.81;96184.75;6210925;28;103864;-56
2022/05/20 05:10:42;;;;;;;3.17;2.87;;;;;;;21.59;33.99;96187.44;6210699;28;103679;-57
2022/05/20 05:13:45;;;;;;;3.97;3.00;;;;;;;21.59;33.96;96192.75;6211291;28;104925;-57
2022/05/20 05:16:49;;;;;;;4.00;3.20;;;;;;;21.61;34.02;96192.47;6200105;28;105095;-56
2022/05/20 05:19:53;;;;;;;3.03;2.80;;;;;;;21.61;33.84;96189.81;6211142;28;103501;-57
2022/05/20 05:22:57;;;;;;;3.23;2.93;;;;;;;21.62;33.66;96192.19;6210869;28;103622;-56
2022/05/20 05:26:00;;;;;;;4.23;3.20;;;;;;;21.62;34.06;96196.72;6210389;28;103835;-56
2022/05/20 05:29:04;;;;;;;3.30;3.10;;;;;;;21.63;33.81;96195.66;6200755;28;105059;-57
2022/05/20 05:32:09;;;;;;;3.47;3.10;;;;;;;21.66;33.64;96195.09;6210791;28;103662;-57
2022/05/20 05:35:16;;;;;;;3.40;3.10;;;;;;;21.71;33.69;96192.44;6209906;28;103762;-57
2022/05/20 05:38:19;;;;;;;4.03;3.67;;;;;;;21.78;33.46;96193.72;6200997;28;104242;-56
2022/05/20 05:41:22;;;;;;;3.70;3.30;;;;;;;21.86;33.73;96192.38;6209846;28;103713;-57
2022/05/20 05:44:25;;;;;;;3.13;2.70;;;;;;;21.93;33.19;96190.19;6210819;28;104702;-56
2022/05/20 05:47:30;;;;;;;4.60;3.30;;;;;;;21.99;33.62;96186.41;6210199;28;103867;-56
2022/05/20 05:50:37;;;;;;;3.03;2.83;;;;;;;22.04;33.43;96189.06;6200621;28;103689;-56
2022/05/20 05:53:40;;;;;;;3.03;2.83;;;;;;;22.08;32.98;96176.78;6210878;28;104932;-56
2022/05/20 05:56:43;;;;;;;3.83;3.53;;;;;;;22.14;32.84;96179.38;6210097;28;104270;-57
2022/05/20 05:59:46;;;;;;;4.40;3.63;;;;;;;22.16;32.73;96175.38;6210706;28;104903;-56
2022/05/20 06:02:51;;;;;;;3.33;3.03;;;;;;;22.21;32.87;96177.22;6200363;28;104875;-57
2022/05/20 06:05:55;;;;;;;4.93;3.50;;;;;;;22.24;33.01;96176.66;6209557;28;103645;-56
2022/05/20 06:08:58;;;;;;;4.60;2.97;;;;;;;22.27;33.38;96186.75;6210374;28;104837;-57
2022/05/20 06:12:01;;;;;;;3.53;3.23;;;;;;;22.32;32.82;96189.38;6205178;28;104167;-57
2022/05/20 06:15:06;;;;;;;4.10;3.80;;;;;;;22.49;33.13;96186.31;6204824;28;103743;-57
2022/05/20 06:18:10;;;;;;;3.50;3.20;;;;;;;22.59;33.08;96181.72;6209824;28;105279;-56
2022/05/20 06:21:14;;;;;;;5.20;3.10;;;;;;;22.66;32.76;96189.38;6210461;28;104851;-56
2022/05/20 06:24:17;;;;;;;4.40;3.83;;;;;;;22.72;32.94;96174.94;6199057;28;104032;-56
2022/05/20 06:27:20;;;;;;;3.90;3.60;;;;;;;22.76;32.79;96172.50;6209589;28;103850;-56
2022/05/20 06:30:23;;;;;;;4.30;3.90;;;;;;;22.81;32.88;96172.44;6214324;28;104951;-56
2022/05/20 06:33:28;;;;;;;3.90;3.60;;;;;;;22.85;33.42;96176.97;6214616;28;104566;-56
2022/05/20 06:39:51;;;;;;;4.53;4.13;;;;;;;22.94;33.19;96174.44;6214051;28;104970;-57
2022/05/20 06:42:54;;;;;;;5.03;4.50;;;;;;;22.95;33.34;96170.69;6214479;28;104960;-57
2022/05/20 06:46:00;;;;;;;5.47;4.97;;;;;;;22.98;33.54;96167.47;6208980;28;104035;-57
2022/05/20 06:49:24;;;;;;;5.23;4.17;;;;;;;23.03;33.04;96170.09;6212764;28;103279;-53
2022/05/20 06:52:27;;;;;;;4.30;3.87;;;;;;;23.06;33.15;96172.19;6213838;28;104964;-53
2022/05/20 06:55:42;;;;;;;4.90;4.50;;;;;;;23.08;33.51;96172.69;6213271;28;103672;-53
2022/05/20 06:58:45;;;;;;;4.10;3.80;;;;;;;23.12;33.28;96176.38;6203243;28;103887;-53
2022/05/20 07:01:48;;;;;;;4.77;4.30;;;;;;;23.14;32.89;96176.88;6213271;28;104860;-54
2022/05/20 07:05:13;;;;;;;3.93;3.63;;;;;;;23.19;33.55;96170.72;6213377;28;103336;-55
2022/05/20 07:08:16;;;;;;;4.60;4.20;;;;;;;23.20;33.03;96162.41;6211890;28;105050;-54
2022/05/20 07:11:21;;;;;;;3.67;3.37;;;;;;;23.25;32.85;96164.22;6206370;28;104656;-53
2022/05/20 07:14:25;;;;;;;4.43;4.03;;;;;;;23.27;33.10;96156.72;6213357;28;103576;-53
2022/05/20 07:17:28;;;;;;;3.80;3.50;;;;;;;23.30;32.96;96173.00;6212734;28;103809;-53
2022/05/20 07:20:33;;;;;;;3.63;3.33;;;;;;;23.34;33.21;96159.06;6202681;28;103861;-53
2022/05/20 07:23:36;;;;;;;3.73;3.43;;;;;;;23.36;32.73;96160.41;6213286;28;104618;-53
2022/05/20 07:26:40;;;;;;;3.90;3.60;;;;;;;23.40;33.07;96160.59;6212827;28;103804;-53
2022/05/20 07:29:44;;;;;;;4.00;3.70;;;;;;;23.41;33.00;96159.53;6212791;28;104871;-54
2022/05/20 07:32:47;;;;;;;3.60;3.30;;;;;;;23.44;32.37;96165.09;6202095;28;103918;-56
2022/05/20 07:35:52;;;;;;;3.50;3.23;;;;;;;23.47;32.47;96155.69;6212805;28;103703;-53
2022/05/20 07:38:55;;;;;;;3.47;3.17;;;;;;;23.49;32.90;96153.53;6211929;28;103762;-53
2022/05/20 07:41:59;;;;;;;3.83;3.50;;;;;;;23.49;32.78;96153.53;6212629;28;103780;-53
2022/05/20 07:45:02;;;;;;;3.90;3.60;;;;;;;23.53;32.55;96155.38;6202294;28;103477;-54
2022/05/20 07:48:06;;;;;;;3.80;3.30;;;;;;;23.55;32.41;96152.41;6211931;28;104959;-53
2022/05/20 07:51:15;;;;;;;3.03;2.83;;;;;;;23.55;32.71;96149.72;6211931;28;103877;-52
2022/05/20 07:54:23;;;;;;;3.17;2.97;;;;;;;23.59;32.55;96153.41;6207069;28;103623;-54
2022/05/20 07:57:26;;;;;;;3.90;3.60;;;;;;;23.59;32.21;96140.84;6210501;28;103645;-53
2022/05/20 08:00:30;;;;;;;3.43;3.13;;;;;;;23.63;32.20;96140.25;6211813;28;103455;-52
2022/05/20 08:06:59;;;;;;;3.17;2.87;;;;;;;23.65;32.52;96130.88;6201595;28;104899;-53
2022/05/20 08:10:04;;;;;;;3.27;3.07;;;;;;;23.66;32.72;96129.00;6211501;28;103891;-53
2022/05/20 08:13:08;;;;;;;3.00;2.80;;;;;;;23.68;32.44;96126.81;6212119;28;104892;-53
2022/05/20 08:16:11;;;;;;;3.30;3.10;;;;;;;23.68;32.11;96130.28;6211551;28;104341;-53
2022/05/20 08:19:14;;;;;;;3.77;3.37;;;;;;;23.69;32.49;96126.56;6200720;28;104758;-53
2022/05/20 08:22:22;;;;;;;3.17;2.90;;;;;;;23.70;32.24;96128.13;6211965;28;103867;-53
2022/05/20 08:25:27;;;;;;;3.27;3.00;;;;;;;23.70;32.49;96114.78;6212037;28;104354;-52
2022/05/20 08:28:30;;;;;;;4.33;3.07;;;;;;;23.71;32.66;96124.38;6201905;28;104834;-54
2022/05/20 08:31:33;;;;;;;3.07;2.83;;;;;;;23.72;32.00;96120.63;6211081;28;103751;-53
2022/05/20 08:34:36;;;;;;;3.27;2.97;;;;;;;23.73;32.55;96116.06;6211601;28;104706;-53
2022/05/20 08:37:48;;;;;;;3.50;3.07;;;;;;;23.72;32.37;96119.84;6210962;28;103641;-52
2022/05/20 08:40:52;;;;;;;3.03;2.83;;;;;;;23.73;32.25;96111.53;6201107;28;105573;-54
2022/05/20 08:43:55;;;;;;;3.27;2.97;;;;;;;23.74;32.35;96101.63;6211487;28;104165;-54
2022/05/20 08:47:13;;;;;;;2.97;2.77;;;;;;;23.75;32.56;96100.53;6210728;28;103854;-55
2022/05/20 08:50:20;;;;;;;3.00;2.80;;;;;;;23.75;32.57;96105.88;6208741;28;104791;-55
2022/05/20 08:53:28;;;;;;;2.93;2.73;;;;;;;23.74;32.60;96105.09;6204785;28;104671;-53
2022/05/20 08:56:31;;;;;;;3.00;2.70;;;;;;;23.74;32.65;96102.41;6211467;28;103578;-52
2022/05/20 08:59:34;;;;;;;3.20;2.93;;;;;;;23.75;32.63;96095.19;6210633;28;103894;-54
2022/05/20 09:02:38;;;;;;;2.97;2.77;;;;;;;23.74;32.67;96094.41;6201776;28;103890;-53
2022/05/20 09:05:43;;;;;;;2.90;2.70;;;;;;;23.75;32.35;96085.28;6210294;28;103650;-54
2022/05/20 09:09:03;;;;;;;3.37;2.90;;;;;;;23.74;32.55;96081.03;6210463;28;103470;-53
2022/05/20 09:12:08;;;;;;;2.70;2.50;;;;;;;23.74;32.43;96070.34;6210919;28;103881;-53
2022/05/20 09:18:40;;;;;;;2.80;2.60;;;;;;;23.73;32.34;96059.94;6210686;28;103826;-53
2022/05/20 09:21:48;;;;;;;2.93;2.73;;;;;;;23.72;32.59;96051.13;6210554;28;104925;-53
2022/05/20 09:24:53;;;;;;;2.67;2.40;;;;;;;23.72;32.37;96050.34;6205237;28;104553;-55
2022/05/20 09:28:15;;;;;;;2.93;2.73;;;;;;;23.71;32.71;96049.56;6204458;28;104790;-53
2022/05/20 09:31:25;;;;;;;3.30;3.00;;;;;;;23.72;32.22;96047.66;6209995;28;104004;-54
2022/05/20 09:34:35;;;;;;;2.83;2.63;;;;;;;23.70;32.56;96045.28;6210312;28;103599;-53
2022/05/20 09:37:38;;;;;;;2.43;2.23;;;;;;;23.69;32.43;96041.03;6199356;28;104590;-53
2022/05/20 09:40:47;;;;;;;2.67;2.47;;;;;;;23.68;32.94;96034.06;6210324;28;103703;-53
2022/05/20 09:43:57;;;;;;;3.53;3.23;;;;;;;23.68;32.75;96028.72;6210543;28;104813;-53
2022/05/20 09:47:09;;;;;;;2.60;2.40;;;;;;;23.66;32.63;96030.09;6210017;28;103738;-55
2022/05/20 09:50:26;;;;;;;2.80;2.40;;;;;;;23.67;32.38;96024.47;6204320;28;103661;-54
2022/05/20 09:53:35;;;;;;;2.70;2.50;;;;;;;23.66;32.60;96022.09;6209974;28;104312;-53
2022/05/20 09:56:45;;;;;;;2.60;2.40;;;;;;;23.65;32.50;96023.19;6210531;28;104667;-53
2022/05/20 09:59:54;;;;;;;2.37;2.17;;;;;;;23.64;32.43;96019.72;6199684;28;105129;-53
2022/05/20 10:03:12;;;;;;;2.73;2.53;;;;;;;23.62;32.75;96016.53;6212302;28;104195;-54
2022/05/20 10:06:21;;;;;;;2.70;2.50;;;;;;;23.60;32.43;96011.50;6214742;28;104787;-53
2022/05/20 10:09:34;;;;;;;3.10;2.60;;;;;;;23.60;33.01;96008.81;6214241;28;104989;-53
2022/05/20 10:12:41;;;;;;;2.67;2.47;;;;;;;23.59;32.98;96001.09;6203754;28;103663;-53
2022/05/20 10:15:48;;;;;;;2.80;2.60;;;;;;;23.57;32.53;95995.25;6214116;28;103847;-53
2022/05/20 10:19:00;;;;;;;2.60;2.40;;;;;;;23.56;32.93;95996.34;6214247;28;104848;-55
2022/05/20 10:22:12;;;;;;;3.07;2.87;;;;;;;23.54;32.93;95995.84;6203657;28;104756;-54
2022/05/20 10:25:24;;;;;;;2.40;2.20;;;;;;;23.54;32.77;95990.50;6214145;28;103686;-53
2022/05/20 10:35:34;;;;;;;2.70;2.50;;;;;;;23.49;33.08;95975.31;6204835;28;103916;-53
2022/05/20 10:38:59;;;;;;;2.77;2.57;;;;;;;23.48;33.00;95964.94;6213487;28;103738;-53
2022/05/20 10:42:37;;;;;;;2.60;2.40;;;;;;;23.48;32.88;95967.59;6213657;28;103314;-54
2022/05/20 10:49:18;;;;;;;2.70;2.50;;;;;;;23.45;32.90;95960.19;6212921;28;103700;-53
2022/05/20 10:52:35;;;;;;;2.70;2.50;;;;;;;23.43;33.05;95952.47;6213879;28;104678;-53
2022/05/20 10:55:52;;;;;;;2.77;2.57;;;;;;;23.42;32.72;95940.19;6208818;28;104562;-53
2022/05/20 10:59:17;;;;;;;2.50;2.30;;;;;;;23.42;32.77;95950.09;6210905;28;103681;-53
2022/05/20 11:02:45;;;;;;;2.60;2.40;;;;;;;23.40;32.87;95941.56;6213259;28;103921;-55
2022/05/20 11:06:12;;;;;;;2.60;2.40;;;;;;;23.38;33.34;95935.72;6213517;28;103910;-53
2022/05/20 11:09:21;;;;;;;2.97;2.77;;;;;;;23.38;33.36;95931.19;6200802;28;103792;-53
2022/05/20 11:12:33;;;;;;;2.87;2.67;;;;;;;23.36;33.07;95919.19;6212776;28;103562;-54
2022/05/20 11:16:07;;;;;;;4.57;4.17;;;;;;;23.30;32.76;95923.81;6212736;28;103658;-57
2022/05/20 11:19:42;;;;;;;6.47;4.00;;;;;;;23.23;30.69;95921.50;6204654;28;105494;-57
2022/05/20 11:23:07;;;;;;;6.33;3.70;;;;;;;23.15;28.92;95918.69;6213751;28;103614;-56
2022/05/20 11:26:34;;;;;;;6.13;2.80;;;;;;;23.12;28.23;95909.38;6214185;28;103839;-57
2022/05/20 11:30:00;;;;;;;6.80;3.20;;;;;;;23.08;26.56;95921.72;6208302;28;103814;-58
2022/05/20 11:33:19;;;;;;;7.83;3.00;;;;;;;23.15;26.64;95905.34;6212917;28;104808;-54
2022/05/20 11:36:45;;;;;;;4.50;3.10;;;;;;;23.18;26.27;95900.19;6208457;28;103885;-55
2022/05/20 11:40:09;;;;;;;4.97;3.07;;;;;;;23.24;26.90;95891.03;6210241;28;103809;-54
2022/05/20 11:43:46;;;;;;;5.83;2.80;;;;;;;23.27;27.50;95889.66;6214183;28;104716;-55
2022/05/20 11:47:06;;;;;;;3.03;2.53;;;;;;;23.26;27.65;95878.19;6237614;27;103690;-55
2022/05/20 11:50:35;;;;;;;4.00;3.07;;;;;;;23.24;27.38;95880.34;6235939;27;103952;-54
2022/05/20 11:53:45;;;;;;;4.73;2.33;;;;;;;23.23;27.20;95876.09;6201801;28;104695;-54
2022/05/20 11:56:53;;;;;;;4.90;1.97;;;;;;;23.23;27.59;95873.44;6212922;28;104811;-54
2022/05/20 12:00:02;;;;;;;4.00;2.20;;;;;;;23.22;27.59;95871.84;6212153;28;103865;-54
2022/05/20 12:03:09;;;;;;;4.63;2.60;;;;;;;23.21;27.55;95870.25;6212378;28;104815;-55
2022/05/20 12:06:12;;;;;;;2.30;2.10;;;;;;;23.20;27.07;95866.00;6202484;28;104728;-55
2022/05/20 12:09:37;;;;;;;2.60;2.10;;;;;;;23.21;27.04;95864.13;6212613;28;104799;-54
2022/05/20 12:12:53;;;;;;;4.10;1.90;;;;;;;23.17;26.66;95861.22;6212213;28;104794;-54
2022/05/20 12:16:12;;;;;;;2.20;1.97;;;;;;;23.16;26.39;95853.50;6200691;28;103753;-54
2022/05/20 12:26:40;;;;;;;6.20;5.70;;;;;;;23.19;27.27;95832.38;6206818;28;103808;-55
2022/05/20 12:30:28;;;;;;;11.10;10.20;;;;;;;23.19;27.70;95835.06;6208298;28;103832;-54
2022/05/20 12:33:50;;;;;;;12.00;11.00;;;;;;;23.20;27.72;95831.28;6212016;28;104796;-54
2022/05/20 12:36:53;;;;;;;11.17;10.10;;;;;;;23.25;28.06;95833.06;6211145;28;103961;-55
2022/05/20 12:39:56;;;;;;;12.03;11.03;;;;;;;23.21;28.47;95824.88;6201367;28;104242;-55
2022/05/20 12:43:09;;;;;;;10.50;9.53;;;;;;;23.18;28.55;95822.75;6210044;28;105158;-55
2022/05/20 12:46:18;;;;;;;9.73;8.90;;;;;;;23.17;27.82;95815.84;6210941;28;103789;-55
2022/05/20 12:49:22;;;;;;;8.00;7.40;;;;;;;23.18;27.94;95811.28;6204987;28;103656;-56
2022/05/20 12:52:27;;;;;;;6.80;6.10;;;;;;;23.15;27.42;95804.66;6207731;28;104955;-55
2022/05/20 12:55:37;;;;;;;7.47;6.77;;;;;;;23.16;26.52;95810.78;6209521;28;103720;-55
2022/05/20 12:58:41;;;;;;;5.27;4.87;;;;;;;23.17;26.52;95804.38;6211330;28;104465;-54
2022/05/20 13:01:49;;;;;;;5.40;5.00;;;;;;;23.16;26.55;95800.13;6199451;28;105057;-54
2022/05/20 13:05:02;;;;;;;5.03;4.33;;;;;;;23.16;26.54;95787.56;6210980;28;104911;-55
2022/05/20 13:08:16;;;;;;;4.37;2.77;;;;;;;23.20;25.88;95783.22;6211632;28;104689;-54
2022/05/20 13:11:22;;;;;;;3.30;3.00;;;;;;;23.21;25.66;95776.81;6209686;28;103749;-55
2022/05/20 13:14:30;;;;;;;3.90;3.23;;;;;;;23.24;26.35;95778.88;6175961;28;104085;-53
2022/05/20 13:17:34;;;;;;;6.33;3.17;;;;;;;23.24;26.27;95773.53;6185693;28;104712;-54
2022/05/20 13:20:38;;;;;;;4.00;2.80;;;;;;;23.25;26.25;95771.66;6186187;28;104683;-54
2022/05/20 13:23:41;;;;;;;3.27;2.70;;;;;;;23.24;26.57;95762.84;6176342;28;103730;-55
2022/05/20 13:26:45;;;;;;;2.97;2.77;;;;;;;23.24;26.93;95762.84;6184948;28;103929;-55
2022/05/20 13:29:58;;;;;;;2.60;2.40;;;;;;;23.23;26.82;95766.63;6200427;28;104806;-55
2022/05/20 13:33:03;;;;;;;3.70;2.47;;;;;;;23.20;27.12;95759.19;6207312;28;104900;-54
2022/05/20 13:36:08;;;;;;;2.73;2.53;;;;;;;23.19;26.57;95752.28;6196190;28;103780;-55
2022/05/20 13:39:17;;;;;;;2.90;2.27;;;;;;;23.19;26.55;95748.81;6210125;28;104731;-56
2022/05/20 13:42:20;;;;;;;3.27;2.67;;;;;;;23.19;27.03;95746.94;6210299;28;104022;-55
2022/05/20 13:52:13;;;;;;;3.93;2.33;;;;;;;23.20;26.96;95731.72;6210682;28;103612;-55
2022/05/20 13:55:18;;;;;;;2.70;2.50;;;;;;;23.19;27.67;95728.25;6210735;28;103573;-54
2022/05/20 13:58:22;;;;;;;2.60;2.40;;;;;;;23.20;27.39;95723.69;6200184;28;103429;-54
2022/05/20 14:01:27;;;;;;;3.53;2.60;;;;;;;23.18;27.23;95718.63;6210119;28;103617;-54
2022/05/20 14:04:33;;;;;;;5.40;2.70;;;;;;;23.22;27.66;95724.97;6209821;28;104688;-55
2022/05/20 14:07:43;;;;;;;1.93;1.83;;;;;;;23.21;27.21;95719.94;6210251;28;103817;-54
2022/05/20 14:10:50;;;;;;;3.20;2.00;;;;;;;23.21;27.43;95720.72;6200121;28;104699;-54
2022/05/20 14:14:00;;;;;;;2.97;2.20;;;;;;;23.20;26.96;95719.16;6209588;28;103844;-54
2022/05/20 14:17:05;;;;;;;3.47;1.90;;;;;;;23.20;26.93;95713.81;6209881;28;103873;-55
2022/05/20 14:20:12;;;;;;;1.80;1.70;;;;;;;23.21;27.84;95714.59;6204633;28;104011;-54
2022/05/20 14:23:17;;;;;;;3.93;2.43;;;;;;;23.21;27.27;95712.72;6205915;28;103927;-55
2022/05/20 14:26:23;;;;;;;2.20;2.00;;;;;;;23.19;27.29;95706.09;6208689;28;104860;-55
2022/05/20 14:29:32;;;;;;;1.67;1.57;;;;;;;23.16;27.26;95710.13;6207231;28;103485;-53
2022/05/20 14:32:37;;;;;;;1.90;1.80;;;;;;;23.15;27.07;95702.41;6198564;28;104006;-54
2022/05/20 14:35:45;;;;;;;3.20;2.10;;;;;;;23.14;26.90;95706.16;6210181;28;105149;-54
2022/05/20 14:38:52;;;;;;;2.90;1.57;;;;;;;23.13;26.95;95702.72;6209798;28;104217;-54
2022/05/20 14:42:02;;;;;;;4.13;2.13;;;;;;;23.10;26.55;95700.63;6209663;28;104770;-55
2022/05/20 14:45:13;;;;;;;1.50;1.30;;;;;;;23.11;26.36;95696.88;6199869;28;105667;-55
2022/05/20 14:48:24;;;;;;;2.27;1.70;;;;;;;23.10;26.93;95686.50;6209888;28;103732;-54
2022/05/20 14:51:30;;;;;;;8.17;2.40;;;;;;;23.12;26.94;95689.66;6214093;28;103748;-55
2022/05/20 14:54:39;;;;;;;4.43;4.00;;;;;;;23.13;26.54;95692.03;6204056;28;104347;-54
2022/05/20 14:57:42;;;;;;;3.97;2.60;;;;;;;23.11;26.74;95688.06;6214052;28;103918;-54
2022/05/20 15:00:54;;;;;;;3.80;2.30;;;;;;;23.13;25.99;95684.03;6213217;28;103712;-56
2022/05/20 15:03:59;;;;;;;5.10;4.47;;;;;;;23.15;28.75;95681.84;6194122;28;103667;-57
2022/05/20 15:07:04;;;;;;;4.70;3.77;;;;;;;23.18;27.95;95685.78;6200369;28;103891;-57
2022/05/20 15:10:14;;;;;;;8.33;5.80;;;;;;;23.17;31.59;95682.34;6211591;28;104892;-56
2022/05/20 15:13:17;;;;;;;5.70;5.20;;;;;;;23.18;30.50;95680.44;6213611;28;104921;-57
2022/05/20 15:16:20;;;;;;;4.00;3.57;;;;;;;23.19;29.00;95674.06;6212351;28;103906;-57